createdAt,value
2018-08-21T00:00:29.154Z,1011.98
2018-08-21T00:01:30.536Z,1011.96
2018-08-21T00:02:31.914Z,1011.96
2018-08-21T00:03:33.305Z,1011.96
2018-08-21T00:04:34.685Z,1011.98
2018-08-21T00:05:36.071Z,1011.97
2018-08-21T00:06:37.464Z,1011.99
2018-08-21T00:07:38.839Z,1011.96
2018-08-21T00:08:40.218Z,1012.03
2018-08-21T00:09:41.607Z,1011.99
2018-08-21T00:10:42.996Z,1012.02
2018-08-21T00:11:44.378Z,1012.03
2018-08-21T00:12:45.763Z,1012.07
2018-08-21T00:13:47.152Z,1012.05
2018-08-21T00:14:48.538Z,1012.04
2018-08-21T00:15:49.916Z,1012.03
2018-08-21T00:16:51.312Z,1012.07
2018-08-21T00:17:53.619Z,1012.09
2018-08-21T00:18:55.010Z,1012.07
2018-08-21T00:19:56.395Z,1012.06
2018-08-21T00:20:57.783Z,1012.07
2018-08-21T00:21:59.169Z,1012.09
2018-08-21T00:23:00.563Z,1012.09
2018-08-21T00:24:01.942Z,1012.08
2018-08-21T00:25:03.327Z,1012.05
2018-08-21T00:26:04.721Z,1012.09
2018-08-21T00:27:06.109Z,1012.09
2018-08-21T00:28:07.489Z,1012.08
2018-08-21T00:29:08.880Z,1012.10
2018-08-21T00:30:10.253Z,1012.14
2018-08-21T00:31:11.656Z,1012.17
2018-08-21T00:32:13.037Z,1012.18
2018-08-21T00:33:14.427Z,1012.19
2018-08-21T00:34:15.815Z,1012.18
2018-08-21T00:35:17.210Z,1012.22
2018-08-21T00:36:18.595Z,1012.22
2018-08-21T00:37:19.976Z,1012.20
2018-08-21T00:38:21.359Z,1012.26
2018-08-21T00:39:23.602Z,1012.26
2018-08-21T00:40:24.994Z,1012.27
2018-08-21T00:41:26.384Z,1012.28
2018-08-21T00:42:27.758Z,1012.30
2018-08-21T00:43:29.144Z,1012.28
2018-08-21T00:44:30.538Z,1012.25
2018-08-21T00:45:31.922Z,1012.33
2018-08-21T00:46:33.314Z,1012.32
2018-08-21T00:47:34.701Z,1012.33
2018-08-21T00:48:36.081Z,1012.33
2018-08-21T00:49:37.481Z,1012.34
2018-08-21T00:50:38.865Z,1012.34
2018-08-21T00:51:40.246Z,1012.33
2018-08-21T00:52:41.642Z,1012.33
2018-08-21T00:53:43.023Z,1012.33
2018-08-21T00:54:44.420Z,1012.35
2018-08-21T00:55:45.807Z,1012.43
2018-08-21T00:56:47.195Z,1012.41
2018-08-21T00:57:48.590Z,1012.43
2018-08-21T00:58:49.972Z,1012.41
2018-08-21T00:59:51.353Z,1012.39
2018-08-21T01:00:52.752Z,1012.39
2018-08-21T01:01:54.137Z,1012.37
2018-08-21T01:02:55.533Z,1012.37
2018-08-21T01:03:56.914Z,1012.40
2018-08-21T01:04:58.296Z,1012.35
2018-08-21T01:05:59.670Z,1012.41
2018-08-21T01:07:01.056Z,1012.43
2018-08-21T01:08:02.445Z,1012.42
2018-08-21T01:09:03.828Z,1012.45
2018-08-21T01:10:05.210Z,1012.46
2018-08-21T01:11:06.598Z,1012.43
2018-08-21T01:12:07.982Z,1012.44
2018-08-21T01:13:09.364Z,1012.47
2018-08-21T01:14:10.752Z,1012.46
2018-08-21T01:15:12.144Z,1012.45
2018-08-21T01:16:13.526Z,1012.50
2018-08-21T01:17:14.925Z,1012.45
2018-08-21T01:18:16.308Z,1012.47
2018-08-21T01:19:17.702Z,1012.48
2018-08-21T01:20:19.095Z,1012.41
2018-08-21T01:21:20.489Z,1012.47
2018-08-21T01:22:21.865Z,1012.46
2018-08-21T01:23:23.263Z,1012.51
2018-08-21T01:24:24.647Z,1012.53
2018-08-21T01:25:26.035Z,1012.51
2018-08-21T01:26:27.425Z,1012.57
2018-08-21T01:27:28.805Z,1012.52
2018-08-21T01:28:30.194Z,1012.52
2018-08-21T01:29:31.578Z,1012.50
2018-08-21T01:30:32.965Z,1012.54
2018-08-21T01:31:34.348Z,1012.56
2018-08-21T01:32:35.742Z,1012.52
2018-08-21T01:33:37.132Z,1012.56
2018-08-21T01:34:38.518Z,1012.59
2018-08-21T01:35:39.906Z,1012.58
2018-08-21T01:36:41.294Z,1012.60
2018-08-21T01:37:42.678Z,1012.58
2018-08-21T01:38:44.065Z,1012.60
2018-08-21T01:39:45.456Z,1012.63
2018-08-21T01:40:46.850Z,1012.65
2018-08-21T01:41:48.234Z,1012.66
2018-08-21T01:42:49.625Z,1012.68
2018-08-21T01:43:51.003Z,1012.69
2018-08-21T01:44:52.383Z,1012.67
2018-08-21T01:45:53.776Z,1012.69
2018-08-21T01:46:55.161Z,1012.70
2018-08-21T01:47:56.549Z,1012.73
2018-08-21T01:48:57.923Z,1012.68
2018-08-21T01:49:59.316Z,1012.71
2018-08-21T01:51:00.697Z,1012.71
2018-08-21T01:52:02.078Z,1012.70
2018-08-21T01:53:03.459Z,1012.70
2018-08-21T01:54:04.837Z,1012.74
2018-08-21T01:55:06.226Z,1012.72
2018-08-21T01:56:07.605Z,1012.71
2018-08-21T01:57:08.993Z,1012.71
2018-08-21T01:58:10.384Z,1012.74
2018-08-21T01:59:11.760Z,1012.74
2018-08-21T02:00:13.154Z,1012.76
2018-08-21T02:01:14.532Z,1012.76
2018-08-21T02:02:15.915Z,1012.75
2018-08-21T02:03:17.308Z,1012.75
2018-08-21T02:04:18.688Z,1012.75
2018-08-21T02:05:20.074Z,1012.76
2018-08-21T02:06:21.460Z,1012.78
2018-08-21T02:07:22.848Z,1012.76
2018-08-21T02:08:24.240Z,1012.78
2018-08-21T02:09:25.620Z,1012.78
2018-08-21T02:10:27.008Z,1012.80
2018-08-21T02:11:28.397Z,1012.82
2018-08-21T02:12:29.779Z,1012.85
2018-08-21T02:13:31.161Z,1012.83
2018-08-21T02:14:32.552Z,1012.88
2018-08-21T02:15:33.933Z,1012.85
2018-08-21T02:16:35.311Z,1012.84
2018-08-21T02:17:36.700Z,1012.81
2018-08-21T02:18:38.083Z,1012.86
2018-08-21T02:19:39.477Z,1012.85
2018-08-21T02:20:40.858Z,1012.88
2018-08-21T02:21:42.248Z,1012.86
2018-08-21T02:22:43.628Z,1012.87
2018-08-21T02:23:45.011Z,1012.84
2018-08-21T02:24:46.388Z,1012.87
2018-08-21T02:25:47.778Z,1012.89
2018-08-21T02:26:49.164Z,1012.92
2018-08-21T02:27:50.551Z,1012.89
2018-08-21T02:28:51.938Z,1012.85
2018-08-21T02:29:53.329Z,1012.89
2018-08-21T02:30:54.714Z,1012.92
2018-08-21T02:31:56.276Z,1012.90
2018-08-21T02:32:57.464Z,1012.88
2018-08-21T02:33:58.847Z,1012.86
2018-08-21T02:35:00.235Z,1012.83
2018-08-21T02:36:01.614Z,1012.85
2018-08-21T02:37:03.003Z,1012.85
2018-08-21T02:38:04.387Z,1012.87
2018-08-21T02:39:05.772Z,1012.86
2018-08-21T02:40:07.151Z,1012.87
2018-08-21T02:41:08.546Z,1012.88
2018-08-21T02:42:09.929Z,1012.90
2018-08-21T02:43:11.313Z,1012.92
2018-08-21T02:44:12.693Z,1012.93
2018-08-21T02:45:14.080Z,1012.92
2018-08-21T02:46:15.463Z,1012.90
2018-08-21T02:47:16.853Z,1012.89
2018-08-21T02:48:18.243Z,1012.90
2018-08-21T02:49:19.632Z,1012.85
2018-08-21T02:50:21.012Z,1012.86
2018-08-21T02:51:22.408Z,1012.90
2018-08-21T02:52:23.783Z,1012.90
2018-08-21T02:53:25.167Z,1012.92
2018-08-21T02:54:26.551Z,1012.90
2018-08-21T02:55:27.955Z,1012.93
2018-08-21T02:56:29.323Z,1012.90
2018-08-21T02:57:30.715Z,1012.94
2018-08-21T02:58:32.094Z,1012.96
2018-08-21T02:59:33.470Z,1012.95
2018-08-21T03:00:35.483Z,1012.93
2018-08-21T03:01:36.868Z,1012.95
2018-08-21T03:02:38.244Z,1012.94
2018-08-21T03:03:39.628Z,1012.93
2018-08-21T03:04:41.016Z,1012.93
2018-08-21T03:05:42.404Z,1012.94
2018-08-21T03:06:43.793Z,1012.91
2018-08-21T03:07:45.174Z,1012.90
2018-08-21T03:08:46.559Z,1012.87
2018-08-21T03:09:47.942Z,1012.89
2018-08-21T03:10:49.326Z,1012.87
2018-08-21T03:11:50.712Z,1012.89
2018-08-21T03:12:52.102Z,1012.91
2018-08-21T03:13:53.493Z,1012.92
2018-08-21T03:14:54.875Z,1012.93
2018-08-21T03:15:56.257Z,1012.92
2018-08-21T03:16:57.641Z,1012.94
2018-08-21T03:17:59.024Z,1012.97
2018-08-21T03:19:00.405Z,1013.00
2018-08-21T03:20:01.792Z,1012.98
2018-08-21T03:21:03.178Z,1012.99
2018-08-21T03:22:04.574Z,1013.02
2018-08-21T03:23:05.950Z,1012.95
2018-08-21T03:24:07.334Z,1012.99
2018-08-21T03:25:08.708Z,1013.02
2018-08-21T03:26:10.092Z,1013.02
2018-08-21T03:27:11.480Z,1012.99
2018-08-21T03:28:12.864Z,1012.97
2018-08-21T03:29:14.253Z,1012.98
2018-08-21T03:30:15.642Z,1012.96
2018-08-21T03:31:17.031Z,1012.97
2018-08-21T03:32:18.417Z,1013.03
2018-08-21T03:33:19.803Z,1012.98
2018-08-21T03:34:21.191Z,1013.01
2018-08-21T03:35:22.574Z,1013.03
2018-08-21T03:36:23.959Z,1013.02
2018-08-21T03:37:25.345Z,1013.05
2018-08-21T03:38:26.719Z,1013.07
2018-08-21T03:39:28.109Z,1013.06
2018-08-21T03:40:29.489Z,1013.07
2018-08-21T03:41:30.884Z,1013.09
2018-08-21T03:42:32.271Z,1013.08
2018-08-21T03:43:33.659Z,1013.05
2018-08-21T03:44:35.040Z,1013.10
2018-08-21T03:45:36.422Z,1013.09
2018-08-21T03:46:37.804Z,1013.07
2018-08-21T03:47:39.191Z,1013.11
2018-08-21T03:48:40.580Z,1013.08
2018-08-21T03:49:41.976Z,1013.08
2018-08-21T03:50:43.353Z,1013.07
2018-08-21T03:51:44.741Z,1013.14
2018-08-21T03:52:46.134Z,1013.17
2018-08-21T03:53:47.511Z,1013.17
2018-08-21T03:54:48.890Z,1013.17
2018-08-21T03:55:50.283Z,1013.21
2018-08-21T03:56:51.674Z,1013.20
2018-08-21T03:57:53.064Z,1013.21
2018-08-21T03:58:54.440Z,1013.23
2018-08-21T03:59:55.825Z,1013.27
2018-08-21T04:00:57.210Z,1013.24
2018-08-21T04:01:58.594Z,1013.26
2018-08-21T04:02:59.985Z,1013.24
2018-08-21T04:04:01.370Z,1013.26
2018-08-21T04:05:02.799Z,1013.24
2018-08-21T04:06:04.143Z,1013.25
2018-08-21T04:07:05.522Z,1013.29
2018-08-21T04:08:06.915Z,1013.28
2018-08-21T04:09:08.297Z,1013.27
2018-08-21T04:10:09.709Z,1013.28
2018-08-21T04:11:11.028Z,1013.30
2018-08-21T04:12:12.414Z,1013.33
2018-08-21T04:13:13.802Z,1013.33
2018-08-21T04:14:15.198Z,1013.32
2018-08-21T04:15:16.587Z,1013.31
2018-08-21T04:16:17.967Z,1013.33
2018-08-21T04:17:19.357Z,1013.31
2018-08-21T04:18:20.746Z,1013.32
2018-08-21T04:19:22.136Z,1013.34
2018-08-21T04:20:23.524Z,1013.31
2018-08-21T04:21:24.911Z,1013.29
2018-08-21T04:22:26.310Z,1013.28
2018-08-21T04:23:27.702Z,1013.30
2018-08-21T04:24:29.097Z,1013.33
2018-08-21T04:25:30.495Z,1013.35
2018-08-21T04:26:31.883Z,1013.36
2018-08-21T04:27:33.268Z,1013.37
2018-08-21T04:28:34.671Z,1013.38
2018-08-21T04:29:36.057Z,1013.40
2018-08-21T04:30:37.437Z,1013.39
2018-08-21T04:31:38.818Z,1013.41
2018-08-21T04:32:40.223Z,1013.41
2018-08-21T04:33:41.565Z,1013.45
2018-08-21T04:34:42.947Z,1013.46
2018-08-21T04:35:44.337Z,1013.42
2018-08-21T04:36:45.714Z,1013.45
2018-08-21T04:37:47.106Z,1013.45
2018-08-21T04:38:48.493Z,1013.51
2018-08-21T04:39:49.884Z,1013.50
2018-08-21T04:40:51.277Z,1013.52
2018-08-21T04:41:52.673Z,1013.52
2018-08-21T04:42:54.057Z,1013.58
2018-08-21T04:43:55.441Z,1013.56
2018-08-21T04:44:56.832Z,1013.53
2018-08-21T04:45:58.229Z,1013.57
2018-08-21T04:46:59.611Z,1013.55
2018-08-21T04:48:00.996Z,1013.57
2018-08-21T04:49:02.394Z,1013.58
2018-08-21T04:50:03.800Z,1013.57
2018-08-21T04:51:05.174Z,1013.58
2018-08-21T04:52:06.557Z,1013.59
2018-08-21T04:53:07.950Z,1013.60
2018-08-21T04:54:09.328Z,1013.63
2018-08-21T04:55:10.726Z,1013.60
2018-08-21T04:56:12.117Z,1013.63
2018-08-21T04:57:13.506Z,1013.67
2018-08-21T04:58:14.898Z,1013.65
2018-08-21T04:59:16.287Z,1013.62
2018-08-21T05:00:17.686Z,1013.63
2018-08-21T05:01:19.069Z,1013.64
2018-08-21T05:02:20.457Z,1013.65
2018-08-21T05:03:21.854Z,1013.67
2018-08-21T05:04:23.245Z,1013.69
2018-08-21T05:05:24.638Z,1013.70
2018-08-21T05:06:26.026Z,1013.73
2018-08-21T05:07:27.414Z,1013.75
2018-08-21T05:08:28.812Z,1013.78
2018-08-21T05:09:30.190Z,1013.78
2018-08-21T05:10:31.578Z,1013.78
2018-08-21T05:11:32.968Z,1013.79
2018-08-21T05:12:34.422Z,1013.82
2018-08-21T05:13:35.755Z,1013.81
2018-08-21T05:14:37.161Z,1013.77
2018-08-21T05:15:38.535Z,1013.81
2018-08-21T05:16:39.936Z,1013.84
2018-08-21T05:17:41.313Z,1013.88
2018-08-21T05:18:42.703Z,1013.86
2018-08-21T05:19:44.093Z,1013.89
2018-08-21T05:20:45.480Z,1013.92
2018-08-21T05:21:46.876Z,1013.89
2018-08-21T05:22:48.247Z,1013.92
2018-08-21T05:23:49.630Z,1013.91
2018-08-21T05:24:51.026Z,1013.90
2018-08-21T05:25:52.410Z,1013.92
2018-08-21T05:26:53.800Z,1013.94
2018-08-21T05:27:55.186Z,1013.94
2018-08-21T05:28:56.578Z,1013.97
2018-08-21T05:29:57.974Z,1013.97
2018-08-21T05:30:59.357Z,1014.00
2018-08-21T05:32:00.742Z,1014.05
2018-08-21T05:33:02.137Z,1014.03
2018-08-21T05:34:03.530Z,1014.02
2018-08-21T05:35:04.933Z,1013.96
2018-08-21T05:36:06.318Z,1013.96
2018-08-21T05:37:07.709Z,1013.95
2018-08-21T05:38:09.094Z,1013.99
2018-08-21T05:39:10.489Z,1014.00
2018-08-21T05:40:11.875Z,1014.00
2018-08-21T05:41:13.274Z,1014.04
2018-08-21T05:42:14.673Z,1014.11
2018-08-21T05:43:16.054Z,1014.14
2018-08-21T05:44:17.471Z,1014.17
2018-08-21T05:45:18.860Z,1014.16
2018-08-21T05:46:20.248Z,1014.15
2018-08-21T05:47:21.642Z,1014.16
2018-08-21T05:48:23.028Z,1014.17
2018-08-21T05:49:24.421Z,1014.15
2018-08-21T05:50:25.816Z,1014.13
2018-08-21T05:51:27.195Z,1014.10
2018-08-21T05:52:28.585Z,1014.08
2018-08-21T05:53:29.973Z,1014.13
2018-08-21T05:54:31.365Z,1014.16
2018-08-21T05:55:32.866Z,1014.19
2018-08-21T05:56:34.091Z,1014.19
2018-08-21T05:57:35.486Z,1014.25
2018-08-21T05:58:36.872Z,1014.26
2018-08-21T05:59:38.268Z,1014.26
2018-08-21T06:00:39.658Z,1014.26
2018-08-21T06:01:41.057Z,1014.26
2018-08-21T06:02:42.440Z,1014.25
2018-08-21T06:03:43.822Z,1014.27
2018-08-21T06:04:45.219Z,1014.27
2018-08-21T06:05:46.601Z,1014.26
2018-08-21T06:06:47.995Z,1014.26
2018-08-21T06:07:49.396Z,1014.30
2018-08-21T06:08:50.799Z,1014.30
2018-08-21T06:09:52.178Z,1014.29
2018-08-21T06:10:53.570Z,1014.35
2018-08-21T06:11:54.959Z,1014.36
2018-08-21T06:12:56.344Z,1014.37
2018-08-21T06:13:57.736Z,1014.38
2018-08-21T06:14:59.131Z,1014.40
2018-08-21T06:16:00.517Z,1014.41
2018-08-21T06:17:01.908Z,1014.45
2018-08-21T06:18:03.312Z,1014.49
2018-08-21T06:19:04.733Z,1014.51
2018-08-21T06:20:06.084Z,1014.50
2018-08-21T06:21:07.486Z,1014.53
2018-08-21T06:22:08.877Z,1014.51
2018-08-21T06:23:10.260Z,1014.54
2018-08-21T06:24:11.657Z,1014.56
2018-08-21T06:25:13.050Z,1014.55
2018-08-21T06:26:14.452Z,1014.62
2018-08-21T06:27:15.839Z,1014.64
2018-08-21T06:28:17.237Z,1014.67
2018-08-21T06:29:18.635Z,1014.63
2018-08-21T06:30:20.023Z,1014.65
2018-08-21T06:31:21.420Z,1014.70
2018-08-21T06:32:22.811Z,1014.78
2018-08-21T06:33:24.207Z,1014.81
2018-08-21T06:34:25.599Z,1014.80
2018-08-21T06:35:26.987Z,1014.83
2018-08-21T06:36:28.381Z,1014.87
2018-08-21T06:37:29.779Z,1014.88
2018-08-21T06:38:31.171Z,1014.81
2018-08-21T06:39:32.569Z,1014.84
2018-08-21T06:40:33.957Z,1014.92
2018-08-21T06:41:35.353Z,1014.86
2018-08-21T06:42:36.741Z,1014.85
2018-08-21T06:43:38.136Z,1014.87
2018-08-21T06:44:39.541Z,1015.00
2018-08-21T06:45:40.943Z,1015.00
2018-08-21T06:46:42.409Z,1015.00
2018-08-21T06:47:43.732Z,1014.98
2018-08-21T06:48:45.129Z,1015.02
2018-08-21T06:49:46.529Z,1015.06
2018-08-21T06:50:47.913Z,1015.06
2018-08-21T06:51:49.320Z,1015.07
2018-08-21T06:52:50.721Z,1015.04
2018-08-21T06:53:52.113Z,1015.00
2018-08-21T06:54:53.511Z,1015.00
2018-08-21T06:55:54.911Z,1015.00
2018-08-21T06:56:56.309Z,1014.99
2018-08-21T06:57:57.715Z,1015.02
2018-08-21T06:58:59.116Z,1015.00
2018-08-21T07:00:00.565Z,1015.04
2018-08-21T07:01:01.959Z,1015.02
2018-08-21T07:02:03.356Z,1015.00
2018-08-21T07:03:04.756Z,1015.05
2018-08-21T07:04:06.177Z,1015.08
2018-08-21T07:05:07.575Z,1015.00
2018-08-21T07:06:08.982Z,1015.00
2018-08-21T07:07:10.370Z,1015.04
2018-08-21T07:08:11.780Z,1014.97
2018-08-21T07:09:13.180Z,1015.00
2018-08-21T07:10:14.570Z,1014.97
2018-08-21T07:11:15.967Z,1015.00
2018-08-21T07:12:17.378Z,1015.00
2018-08-21T07:13:18.793Z,1014.97
2018-08-21T07:14:20.184Z,1014.98
2018-08-21T07:15:21.568Z,1015.01
2018-08-21T07:16:23.628Z,1014.95
2018-08-21T07:17:25.040Z,1014.97
2018-08-21T07:18:26.456Z,1014.96
2018-08-21T07:19:27.844Z,1014.98
2018-08-21T07:20:29.239Z,1015.00
2018-08-21T07:21:30.637Z,1014.98
2018-08-21T07:22:32.036Z,1014.99
2018-08-21T07:23:33.439Z,1015.01
2018-08-21T07:24:34.846Z,1015.07
2018-08-21T07:25:36.238Z,1015.05
2018-08-21T07:26:37.630Z,1015.09
2018-08-21T07:27:39.032Z,1015.09
2018-08-21T07:28:40.438Z,1015.05
2018-08-21T07:29:41.822Z,1015.06
2018-08-21T07:30:43.229Z,1015.07
2018-08-21T07:31:44.622Z,1015.10
2018-08-21T07:32:46.011Z,1015.10
2018-08-21T07:33:47.400Z,1015.03
2018-08-21T07:34:48.758Z,1015.08
2018-08-21T07:35:50.219Z,1015.12
2018-08-21T07:36:51.575Z,1015.09
2018-08-21T07:37:52.972Z,1015.14
2018-08-21T07:38:54.367Z,1015.09
2018-08-21T07:39:55.764Z,1015.14
2018-08-21T07:40:57.161Z,1015.10
2018-08-21T07:41:58.565Z,1015.09
2018-08-21T07:42:59.957Z,1015.17
2018-08-21T07:44:01.358Z,1015.15
2018-08-21T07:45:02.754Z,1015.12
2018-08-21T07:46:04.186Z,1015.14
2018-08-21T07:47:05.541Z,1015.17
2018-08-21T07:48:06.936Z,1015.15
2018-08-21T07:49:08.330Z,1015.15
2018-08-21T07:50:09.723Z,1015.13
2018-08-21T07:51:11.115Z,1015.09
2018-08-21T07:52:12.513Z,1015.07
2018-08-21T07:53:13.898Z,1015.10
2018-08-21T07:54:15.294Z,1015.08
2018-08-21T07:55:16.684Z,1015.09
2018-08-21T07:56:18.089Z,1015.12
2018-08-21T07:57:19.475Z,1015.12
2018-08-21T07:58:20.869Z,1015.14
2018-08-21T07:59:22.266Z,1015.19
2018-08-21T08:00:23.661Z,1015.18
2018-08-21T08:01:25.055Z,1015.18
2018-08-21T08:02:26.455Z,1015.19
2018-08-21T08:03:27.853Z,1015.15
2018-08-21T08:04:29.242Z,1015.14
2018-08-21T08:05:30.636Z,1015.16
2018-08-21T08:06:32.032Z,1015.15
2018-08-21T08:07:33.436Z,1015.18
2018-08-21T08:08:34.826Z,1015.20
2018-08-21T08:09:36.221Z,1015.19
2018-08-21T08:10:37.616Z,1015.21
2018-08-21T08:11:39.014Z,1015.24
2018-08-21T08:12:40.412Z,1015.21
2018-08-21T08:13:41.880Z,1015.23
2018-08-21T08:14:43.197Z,1015.24
2018-08-21T08:15:44.598Z,1015.26
2018-08-21T08:16:45.995Z,1015.25
2018-08-21T08:17:47.386Z,1015.22
2018-08-21T08:18:48.774Z,1015.18
2018-08-21T08:19:50.175Z,1015.20
2018-08-21T08:20:51.572Z,1015.18
2018-08-21T08:21:52.971Z,1015.20
2018-08-21T08:22:54.388Z,1015.18
2018-08-21T08:23:55.719Z,1015.19
2018-08-21T08:24:57.116Z,1015.18
2018-08-21T08:25:58.506Z,1015.17
2018-08-21T08:26:59.901Z,1015.16
2018-08-21T08:28:01.299Z,1015.19
2018-08-21T08:29:02.766Z,1015.18
2018-08-21T08:30:04.067Z,1015.18
2018-08-21T08:31:05.461Z,1015.17
2018-08-21T08:32:06.859Z,1015.18
2018-08-21T08:33:08.259Z,1015.18
2018-08-21T08:34:09.654Z,1015.19
2018-08-21T08:35:11.038Z,1015.15
2018-08-21T08:36:12.443Z,1015.18
2018-08-21T08:37:13.839Z,1015.17
2018-08-21T08:38:15.232Z,1015.17
2018-08-21T08:39:16.639Z,1015.14
2018-08-21T08:40:18.042Z,1015.15
2018-08-21T08:41:19.429Z,1015.14
2018-08-21T08:42:20.829Z,1015.16
2018-08-21T08:43:22.227Z,1015.17
2018-08-21T08:44:23.622Z,1015.22
2018-08-21T08:45:25.013Z,1015.22
2018-08-21T08:46:26.413Z,1015.18
2018-08-21T08:47:27.813Z,1015.22
2018-08-21T08:48:29.203Z,1015.21
2018-08-21T08:49:30.600Z,1015.17
2018-08-21T08:50:32.013Z,1015.20
2018-08-21T08:51:33.406Z,1015.19
2018-08-21T08:52:34.796Z,1015.18
2018-08-21T08:53:36.191Z,1015.23
2018-08-21T08:54:37.591Z,1015.21
2018-08-21T08:55:38.991Z,1015.20
2018-08-21T08:56:40.377Z,1015.19
2018-08-21T08:57:41.770Z,1015.18
2018-08-21T08:58:43.176Z,1015.22
2018-08-21T08:59:44.563Z,1015.24
2018-08-21T09:00:45.958Z,1015.26
2018-08-21T09:01:47.356Z,1015.30
2018-08-21T09:02:48.757Z,1015.27
2018-08-21T09:03:50.154Z,1015.28
2018-08-21T09:04:51.568Z,1015.24
2018-08-21T09:05:52.948Z,1015.24
2018-08-21T09:06:54.342Z,1015.23
2018-08-21T09:07:55.752Z,1015.26
2018-08-21T09:08:57.150Z,1015.32
2018-08-21T09:09:58.542Z,1015.31
2018-08-21T09:10:59.943Z,1015.30
2018-08-21T09:12:01.329Z,1015.32
2018-08-21T09:13:02.724Z,1015.34
2018-08-21T09:14:04.126Z,1015.35
2018-08-21T09:15:05.524Z,1015.35
2018-08-21T09:16:06.932Z,1015.33
2018-08-21T09:17:08.312Z,1015.30
2018-08-21T09:18:09.713Z,1015.29
2018-08-21T09:19:11.111Z,1015.27
2018-08-21T09:20:12.495Z,1015.27
2018-08-21T09:21:13.893Z,1015.30
2018-08-21T09:22:15.280Z,1015.34
2018-08-21T09:23:16.689Z,1015.39
2018-08-21T09:24:18.079Z,1015.36
2018-08-21T09:25:19.478Z,1015.37
2018-08-21T09:26:20.874Z,1015.41
2018-08-21T09:27:22.267Z,1015.40
2018-08-21T09:28:23.665Z,1015.36
2018-08-21T09:29:25.096Z,1015.36
2018-08-21T09:30:26.459Z,1015.36
2018-08-21T09:31:27.857Z,1015.33
2018-08-21T09:32:29.254Z,1015.39
2018-08-21T09:33:30.649Z,1015.37
2018-08-21T09:34:32.052Z,1015.33
2018-08-21T09:35:33.457Z,1015.36
2018-08-21T09:36:34.840Z,1015.39
2018-08-21T09:37:36.243Z,1015.39
2018-08-21T09:38:37.631Z,1015.42
2018-08-21T09:39:39.023Z,1015.41
2018-08-21T09:40:40.424Z,1015.39
2018-08-21T09:41:41.825Z,1015.41
2018-08-21T09:42:43.222Z,1015.42
2018-08-21T09:43:44.612Z,1015.37
2018-08-21T09:44:46.020Z,1015.34
2018-08-21T09:45:47.429Z,1015.37
2018-08-21T09:46:48.806Z,1015.38
2018-08-21T09:47:50.217Z,1015.39
2018-08-21T09:48:51.599Z,1015.41
2018-08-21T09:49:53.004Z,1015.43
2018-08-21T09:50:54.399Z,1015.40
2018-08-21T09:51:55.799Z,1015.39
2018-08-21T09:52:57.205Z,1015.38
2018-08-21T09:53:58.604Z,1015.35
2018-08-21T09:54:59.992Z,1015.33
2018-08-21T09:56:01.385Z,1015.30
2018-08-21T09:57:02.776Z,1015.24
2018-08-21T09:58:04.177Z,1015.28
2018-08-21T09:59:05.590Z,1015.28
2018-08-21T10:00:06.977Z,1015.28
2018-08-21T10:01:08.375Z,1015.27
2018-08-21T10:02:09.776Z,1015.27
2018-08-21T10:03:11.173Z,1015.29
2018-08-21T10:04:12.574Z,1015.30
2018-08-21T10:05:13.968Z,1015.29
2018-08-21T10:06:15.364Z,1015.25
2018-08-21T10:07:16.770Z,1015.25
2018-08-21T10:08:18.165Z,1015.20
2018-08-21T10:09:19.572Z,1015.19
2018-08-21T10:10:20.963Z,1015.19
2018-08-21T10:11:22.363Z,1015.16
2018-08-21T10:12:23.778Z,1015.15
2018-08-21T10:13:25.212Z,1015.18
2018-08-21T10:14:26.578Z,1015.17
2018-08-21T10:15:27.985Z,1015.15
2018-08-21T10:16:29.374Z,1015.11
2018-08-21T10:17:30.776Z,1015.10
2018-08-21T10:18:32.173Z,1015.10
2018-08-21T10:19:33.578Z,1015.11
2018-08-21T10:20:34.971Z,1015.13
2018-08-21T10:21:36.370Z,1015.17
2018-08-21T10:22:37.774Z,1015.15
2018-08-21T10:23:39.171Z,1015.14
2018-08-21T10:24:40.562Z,1015.15
2018-08-21T10:25:41.971Z,1015.11
2018-08-21T10:26:43.360Z,1015.11
2018-08-21T10:27:44.758Z,1015.10
2018-08-21T10:28:46.171Z,1015.07
2018-08-21T10:29:47.594Z,1015.00
2018-08-21T10:30:48.990Z,1015.04
2018-08-21T10:31:50.392Z,1015.01
2018-08-21T10:32:51.794Z,1015.02
2018-08-21T10:33:53.184Z,1015.05
2018-08-21T10:34:54.652Z,1015.01
2018-08-21T10:35:55.983Z,1015.02
2018-08-21T10:36:57.391Z,1015.04
2018-08-21T10:37:58.789Z,1014.99
2018-08-21T10:39:00.186Z,1015.01
2018-08-21T10:40:01.577Z,1014.93
2018-08-21T10:41:02.979Z,1014.90
2018-08-21T10:42:04.401Z,1014.92
2018-08-21T10:43:05.783Z,1014.93
2018-08-21T10:44:07.194Z,1014.94
2018-08-21T10:45:08.592Z,1014.95
2018-08-21T10:46:09.998Z,1014.93
2018-08-21T10:47:11.392Z,1014.94
2018-08-21T10:48:12.798Z,1014.89
2018-08-21T10:49:14.190Z,1014.90
2018-08-21T10:50:15.586Z,1014.94
2018-08-21T10:51:16.991Z,1014.92
2018-08-21T10:52:18.388Z,1014.94
2018-08-21T10:53:19.780Z,1014.97
2018-08-21T10:54:21.185Z,1015.00
2018-08-21T10:55:22.582Z,1015.01
2018-08-21T10:56:23.993Z,1015.04
2018-08-21T10:57:25.394Z,1014.99
2018-08-21T10:58:26.800Z,1015.05
2018-08-21T10:59:28.202Z,1015.06
2018-08-21T11:00:29.607Z,1015.08
2018-08-21T11:01:30.995Z,1015.09
2018-08-21T11:02:32.406Z,1015.08
2018-08-21T11:03:33.806Z,1015.07
2018-08-21T11:04:35.216Z,1015.05
2018-08-21T11:05:36.615Z,1015.06
2018-08-21T11:06:38.025Z,1015.01
2018-08-21T11:07:39.439Z,1015.01
2018-08-21T11:08:40.837Z,1015.06
2018-08-21T11:09:42.242Z,1015.06
2018-08-21T11:10:43.651Z,1015.13
2018-08-21T11:11:45.063Z,1015.09
2018-08-21T11:12:46.460Z,1015.14
2018-08-21T11:13:47.878Z,1015.13
2018-08-21T11:14:49.288Z,1015.12
2018-08-21T11:15:50.688Z,1015.11
2018-08-21T11:16:52.102Z,1015.11
2018-08-21T11:17:53.506Z,1015.12
2018-08-21T11:18:54.912Z,1015.11
2018-08-21T11:19:56.316Z,1015.10
2018-08-21T11:20:57.738Z,1015.08
2018-08-21T11:21:59.117Z,1015.07
2018-08-21T11:23:00.544Z,1015.07
2018-08-21T11:24:01.989Z,1015.10
2018-08-21T11:25:03.317Z,1015.04
2018-08-21T11:26:04.724Z,1015.04
2018-08-21T11:27:06.114Z,1015.04
2018-08-21T11:28:07.523Z,1015.03
2018-08-21T11:29:08.929Z,1015.12
2018-08-21T11:30:10.339Z,1015.07
2018-08-21T11:31:11.739Z,1015.05
2018-08-21T11:32:13.136Z,1015.03
2018-08-21T11:33:14.542Z,1015.00
2018-08-21T11:34:15.958Z,1015.03
2018-08-21T11:35:17.363Z,1015.01
2018-08-21T11:36:18.763Z,1015.05
2018-08-21T11:37:20.171Z,1015.00
2018-08-21T11:38:21.579Z,1014.96
2018-08-21T11:39:22.981Z,1014.98
2018-08-21T11:40:24.387Z,1015.01
2018-08-21T11:41:25.791Z,1015.04
2018-08-21T11:42:27.207Z,1014.99
2018-08-21T11:43:28.616Z,1014.97
2018-08-21T11:44:30.018Z,1014.96
2018-08-21T11:45:31.425Z,1014.95
2018-08-21T11:46:32.828Z,1014.89
2018-08-21T11:47:34.224Z,1014.87
2018-08-21T11:48:35.625Z,1014.88
2018-08-21T11:49:37.031Z,1014.87
2018-08-21T11:50:38.422Z,1014.92
2018-08-21T11:51:39.840Z,1014.95
2018-08-21T11:52:41.235Z,1014.94
2018-08-21T11:53:42.639Z,1014.91
2018-08-21T11:54:44.035Z,1014.92
2018-08-21T11:55:45.438Z,1014.89
2018-08-21T11:56:46.852Z,1014.87
2018-08-21T11:57:48.252Z,1014.89
2018-08-21T11:58:49.646Z,1014.88
2018-08-21T11:59:51.065Z,1014.87
2018-08-21T12:00:52.436Z,1014.88
2018-08-21T12:01:53.841Z,1014.91
2018-08-21T12:02:55.239Z,1014.94
2018-08-21T12:03:56.631Z,1014.88
2018-08-21T12:04:58.037Z,1014.93
2018-08-21T12:05:59.434Z,1014.89
2018-08-21T12:07:00.848Z,1014.86
2018-08-21T12:08:02.238Z,1014.88
2018-08-21T12:09:03.698Z,1014.92
2018-08-21T12:10:05.002Z,1014.94
2018-08-21T12:11:06.400Z,1014.95
2018-08-21T12:12:07.797Z,1014.85
2018-08-21T12:13:09.198Z,1014.92
2018-08-21T12:14:10.584Z,1014.98
2018-08-21T12:15:11.991Z,1014.96
2018-08-21T12:16:13.388Z,1014.96
2018-08-21T12:17:14.780Z,1014.94
2018-08-21T12:18:16.185Z,1014.92
2018-08-21T12:19:17.583Z,1014.91
2018-08-21T12:20:18.980Z,1014.88
2018-08-21T12:21:20.390Z,1014.91
2018-08-21T12:22:21.793Z,1014.94